sensor_id;sensor_type;location;lat;lon;timestamp;pressure;altitude;pressure_sealevel;temperature;humidity
9784;BME280;4931;44.874;-1.092;2023-03-13T00:00:51;101255.75;;;12.78;100.00
9784;BME280;4931;44.874;-1.092;2023-03-13T00:03:17;101254.69;;;12.69;100.00
9784;BME280;4931;44.874;-1.092;2023-03-13T00:05:42;101246.97;;;12.66;100.00
9784;BME280;4931;44.874;-1.092;2023-03-13T00:08:08;101236.22;;;12.69;100.00
9784;BME280;4931;44.874;-1.092;2023-03-13T00:10:37;101242.84;;;12.63;100.00
9784;BME280;4931;44.874;-1.092;2023-03-13T00:13:04;101229.69;;;12.55;100.00
9784;BME280;4931;44.874;-1.092;2023-03-13T00:15:29;101233.81;;;12.57;100.00
9784;BME280;4931;44.874;-1.092;2023-03-13T00:17:55;101234.63;;;12.58;100.00
9784;BME280;4931;44.874;-1.092;2023-03-13T00:20:21;101238.50;;;12.57;100.00
9784;BME280;4931;44.874;-1.092;2023-03-13T00:22:46;101220.34;;;12.51;100.00
9784;BME280;4931;44.874;-1.092;2023-03-13T00:25:12;101230.50;;;12.55;100.00
9784;BME280;4931;44.874;-1.092;2023-03-13T00:27:37;101220.88;;;12.53;100.00
9784;BME280;4931;44.874;-1.092;2023-03-13T00:30:03;101221.44;;;12.50;100.00
9784;BME280;4931;44.874;-1.092;2023-03-13T00:32:29;101224.78;;;12.47;100.00
9784;BME280;4931;44.874;-1.092;2023-03-13T00:34:54;101223.41;;;12.49;100.00
9784;BME280;4931;44.874;-1.092;2023-03-13T00:37:20;101221.44;;;12.50;100.00
9784;BME280;4931;44.874;-1.092;2023-03-13T00:39:45;101218.69;;;12.50;100.00
9784;BME280;4931;44.874;-1.092;2023-03-13T00:42:11;101223.63;;;12.53;100.00
9784;BME280;4931;44.874;-1.092;2023-03-13T00:44:36;101217.03;;;12.49;100.00
9784;BME280;4931;44.874;-1.092;2023-03-13T00:47:01;101210.75;;;12.43;100.00
9784;BME280;4931;44.874;-1.092;2023-03-13T00:49:30;101208.81;;;12.43;100.00
9784;BME280;4931;44.874;-1.092;2023-03-13T00:51:55;101201.13;;;12.40;100.00
9784;BME280;4931;44.874;-1.092;2023-03-13T00:54:21;101193.16;;;12.39;100.00
9784;BME280;4931;44.874;-1.092;2023-03-13T00:56:46;101189.84;;;12.37;100.00
9784;BME280;4931;44.874;-1.092;2023-03-13T00:59:13;101185.75;;;12.34;100.00
9784;BME280;4931;44.874;-1.092;2023-03-13T01:01:38;101189.63;;;12.33;100.00
9784;BME280;4931;44.874;-1.092;2023-03-13T01:04:06;101178.34;;;12.29;100.00
9784;BME280;4931;44.874;-1.092;2023-03-13T01:06:34;101180.81;;;12.31;100.00
9784;BME280;4931;44.874;-1.092;2023-03-13T01:09:00;101175.88;;;12.28;100.00
9784;BME280;4931;44.874;-1.092;2023-03-13T01:11:28;101170.94;;;12.25;100.00
9784;BME280;4931;44.874;-1.092;2023-03-13T01:13:56;101170.94;;;12.25;100.00
9784;BME280;4931;44.874;-1.092;2023-03-13T01:16:22;101160.53;;;12.11;100.00
9784;BME280;4931;44.874;-1.092;2023-03-13T01:18:53;101167.69;;;12.07;100.00
9784;BME280;4931;44.874;-1.092;2023-03-13T01:21:20;101157.22;;;12.15;100.00
9784;BME280;4931;44.874;-1.092;2023-03-13T01:23:47;101163.00;;;12.13;100.00
9784;BME280;4931;44.874;-1.092;2023-03-13T01:26:14;101159.97;;;12.15;100.00
9784;BME280;4931;44.874;-1.092;2023-03-13T01:28:39;101167.38;;;12.19;100.00
9784;BME280;4931;44.874;-1.092;2023-03-13T01:31:21;101167.69;;;12.12;100.00
9784;BME280;4931;44.874;-1.092;2023-03-13T01:33:49;101152.25;;;12.17;100.00
9784;BME280;4931;44.874;-1.092;2023-03-13T01:36:16;101148.97;;;12.15;100.00
9784;BME280;4931;44.874;-1.092;2023-03-13T01:38:41;101145.13;;;12.16;100.00
9784;BME280;4931;44.874;-1.092;2023-03-13T01:41:11;101145.69;;;12.12;100.00
9784;BME280;4931;44.874;-1.092;2023-03-13T01:43:37;101141.84;;;12.14;100.00
9784;BME280;4931;44.874;-1.092;2023-03-13T01:46:23;101143.75;;;12.13;100.00
9784;BME280;4931;44.874;-1.092;2023-03-13T01:48:58;101143.47;;;12.15;100.00
9784;BME280;4931;44.874;-1.092;2023-03-13T01:56:40;101112.94;;;12.16;100.00
9784;BME280;4931;44.874;-1.092;2023-03-13T01:59:08;101108.88;;;12.03;100.00
9784;BME280;4931;44.874;-1.092;2023-03-13T02:01:35;101111.66;;;11.98;100.00
9784;BME280;4931;44.874;-1.092;2023-03-13T02:04:01;101113.28;;;11.99;100.00
9784;BME280;4931;44.874;-1.092;2023-03-13T02:06:29;101113.28;;;11.99;100.00
9784;BME280;4931;44.874;-1.092;2023-03-13T02:09:02;101114.91;;;12.00;100.00
9784;BME280;4931;44.874;-1.092;2023-03-13T02:14:04;101110.53;;;11.99;100.00
9784;BME280;4931;44.874;-1.092;2023-03-13T02:16:32;101111.06;;;12.01;100.00
9784;BME280;4931;44.874;-1.092;2023-03-13T02:19:00;101119.88;;;12.03;100.00
9784;BME280;4931;44.874;-1.092;2023-03-13T02:21:32;101106.66;;;12.05;100.00
9784;BME280;4931;44.874;-1.092;2023-03-13T02:24:07;101111.06;;;12.06;100.00
9784;BME280;4931;44.874;-1.092;2023-03-13T02:26:33;101110.81;;;11.98;100.00
9784;BME280;4931;44.874;-1.092;2023-03-13T02:28:59;101099.00;;;11.97;100.00
9784;BME280;4931;44.874;-1.092;2023-03-13T02:31:25;101112.44;;;11.99;100.00
9784;BME280;4931;44.874;-1.092;2023-03-13T02:33:52;101106.16;;;11.98;100.00
9784;BME280;4931;44.874;-1.092;2023-03-13T02:36:19;101096.53;;;11.95;100.00
9784;BME280;4931;44.874;-1.092;2023-03-13T02:38:54;101072.09;;;11.84;100.00
9784;BME280;4931;44.874;-1.092;2023-03-13T02:41:21;101077.03;;;11.82;100.00
9784;BME280;4931;44.874;-1.092;2023-03-13T02:43:47;101072.88;;;11.84;100.00
9784;BME280;4931;44.874;-1.092;2023-03-13T02:46:18;101067.66;;;11.88;100.00
9784;BME280;4931;44.874;-1.092;2023-03-13T02:51:35;101059.16;;;11.79;100.00
9784;BME280;4931;44.874;-1.092;2023-03-13T02:54:05;101058.94;;;11.75;100.00
9784;BME280;4931;44.874;-1.092;2023-03-13T02:56:35;101064.41;;;11.75;100.00
9784;BME280;4931;44.874;-1.092;2023-03-13T02:59:01;101049.53;;;11.82;100.00
9784;BME280;4931;44.874;-1.092;2023-03-13T03:01:27;101050.13;;;11.73;100.00
9784;BME280;4931;44.874;-1.092;2023-03-13T03:03:53;101047.94;;;11.70;100.00
9784;BME280;4931;44.874;-1.092;2023-03-13T03:06:18;101039.41;;;11.72;100.00
9784;BME280;4931;44.874;-1.092;2023-03-13T03:08:44;101032.56;;;11.69;100.00
9784;BME280;4931;44.874;-1.092;2023-03-13T03:11:09;101019.59;;;11.75;100.00
9784;BME280;4931;44.874;-1.092;2023-03-13T03:13:35;101018.81;;;11.74;100.00
9784;BME280;4931;44.874;-1.092;2023-03-13T03:16:09;101020.47;;;11.70;100.00
9784;BME280;4931;44.874;-1.092;2023-03-13T03:18:35;101012.22;;;11.70;100.00
9784;BME280;4931;44.874;-1.092;2023-03-13T03:21:01;101009.47;;;11.70;100.00
9784;BME280;4931;44.874;-1.092;2023-03-13T03:23:29;101012.22;;;11.70;100.00
9784;BME280;4931;44.874;-1.092;2023-03-13T03:25:54;100995.75;;;11.70;100.00
9784;BME280;4931;44.874;-1.092;2023-03-13T03:28:20;100998.50;;;11.65;100.00
9784;BME280;4931;44.874;-1.092;2023-03-13T03:30:45;101001.78;;;11.67;100.00
9784;BME280;4931;44.874;-1.092;2023-03-13T03:33:11;100995.19;;;11.63;100.00
9784;BME280;4931;44.874;-1.092;2023-03-13T03:35:36;101012.81;;;11.57;100.00
9784;BME280;4931;44.874;-1.092;2023-03-13T03:38:05;101013.34;;;11.64;100.00
9784;BME280;4931;44.874;-1.092;2023-03-13T03:40:30;100993.03;;;11.55;100.00
9784;BME280;4931;44.874;-1.092;2023-03-13T03:42:56;100993.63;;;11.52;100.00
9784;BME280;4931;44.874;-1.092;2023-03-13T03:45:21;100984.00;;;11.49;100.00
9784;BME280;4931;44.874;-1.092;2023-03-13T03:47:47;100982.88;;;11.50;100.00
9784;BME280;4931;44.874;-1.092;2023-03-13T03:50:12;100972.19;;;11.49;100.00
9784;BME280;4931;44.874;-1.092;2023-03-13T03:52:38;100960.69;;;11.41;100.00
9784;BME280;4931;44.874;-1.092;2023-03-13T03:55:04;100971.41;;;11.38;100.00
9784;BME280;4931;44.874;-1.092;2023-03-13T03:57:30;100962.91;;;11.29;100.00
9784;BME280;4931;44.874;-1.092;2023-03-13T03:59:55;100955.50;;;11.35;100.00
9784;BME280;4931;44.874;-1.092;2023-03-13T04:02:21;100960.44;;;11.27;100.00
9784;BME280;4931;44.874;-1.092;2023-03-13T04:04:46;100955.72;;;11.38;100.00
9784;BME280;4931;44.874;-1.092;2023-03-13T04:07:12;100956.28;;;11.40;100.00
9784;BME280;4931;44.874;-1.092;2023-03-13T04:09:37;100959.06;;;11.35;100.00
9784;BME280;4931;44.874;-1.092;2023-03-13T04:12:03;100958.75;;;11.42;100.00
9784;BME280;4931;44.874;-1.092;2023-03-13T04:14:28;100954.06;;;11.42;100.00
9784;BME280;4931;44.874;-1.092;2023-03-13T04:16:54;100943.13;;;11.37;100.00
9784;BME280;4931;44.874;-1.092;2023-03-13T04:19:19;100944.25;;;11.31;100.00
9784;BME280;4931;44.874;-1.092;2023-03-13T04:21:44;100959.59;;;11.37;100.00
9784;BME280;4931;44.874;-1.092;2023-03-13T04:24:10;100951.94;;;11.29;100.00
9784;BME280;4931;44.874;-1.092;2023-03-13T04:26:35;100946.44;;;11.29;100.00
9784;BME280;4931;44.874;-1.092;2023-03-13T04:29:01;100947.56;;;11.23;100.00
9784;BME280;4931;44.874;-1.092;2023-03-13T04:31:26;100942.09;;;11.23;100.00
9784;BME280;4931;44.874;-1.092;2023-03-13T04:33:52;100933.03;;;11.17;100.00
9784;BME280;4931;44.874;-1.092;2023-03-13T04:36:17;100920.66;;;11.20;100.00
9784;BME280;4931;44.874;-1.092;2023-03-13T04:38:43;100919.56;;;11.16;100.00
9784;BME280;4931;44.874;-1.092;2023-03-13T04:41:08;100920.13;;;11.23;100.00
9784;BME280;4931;44.874;-1.092;2023-03-13T04:43:34;100935.22;;;11.20;100.00
9784;BME280;4931;44.874;-1.092;2023-03-13T04:45:59;100940.66;;;11.25;100.00
9784;BME280;4931;44.874;-1.092;2023-03-13T04:48:25;100931.59;;;11.35;100.00
9784;BME280;4931;44.874;-1.092;2023-03-13T04:50:50;100921.19;;;11.27;100.00
9784;BME280;4931;44.874;-1.092;2023-03-13T04:53:16;100921.72;;;11.24;100.00
9784;BME280;4931;44.874;-1.092;2023-03-13T04:55:41;100920.63;;;11.30;100.00
9784;BME280;4931;44.874;-1.092;2023-03-13T04:58:07;100906.91;;;11.25;100.00
9784;BME280;4931;44.874;-1.092;2023-03-13T05:00:32;100900.91;;;11.18;100.00
9784;BME280;4931;44.874;-1.092;2023-03-13T05:02:58;100910.25;;;11.11;100.00
9784;BME280;4931;44.874;-1.092;2023-03-13T05:05:23;100911.31;;;11.21;100.00
9784;BME280;4931;44.874;-1.092;2023-03-13T05:07:49;100911.31;;;11.21;100.00
9784;BME280;4931;44.874;-1.092;2023-03-13T05:10:14;100898.69;;;11.20;100.00
9784;BME280;4931;44.874;-1.092;2023-03-13T05:12:40;100895.41;;;11.18;100.00
9784;BME280;4931;44.874;-1.092;2023-03-13T05:15:06;100895.13;;;11.24;100.00
9784;BME280;4931;44.874;-1.092;2023-03-13T05:17:31;100901.41;;;11.25;100.00
9784;BME280;4931;44.874;-1.092;2023-03-13T05:19:57;100885.25;;;11.18;100.00
9784;BME280;4931;44.874;-1.092;2023-03-13T05:22:22;100878.13;;;11.12;100.00
9784;BME280;4931;44.874;-1.092;2023-03-13T05:24:48;100884.97;;;11.15;100.00
9784;BME280;4931;44.874;-1.092;2023-03-13T05:27:13;100883.06;;;11.15;100.00
9784;BME280;4931;44.874;-1.092;2023-03-13T05:29:42;100873.78;;;11.06;100.00
9784;BME280;4931;44.874;-1.092;2023-03-13T05:32:07;100869.59;;;11.13;100.00
9784;BME280;4931;44.874;-1.092;2023-03-13T05:34:33;100875.66;;;11.16;100.00
9784;BME280;4931;44.874;-1.092;2023-03-13T05:36:58;100869.59;;;11.19;100.00
9784;BME280;4931;44.874;-1.092;2023-03-13T05:39:24;100860.31;;;11.04;100.00
9784;BME280;4931;44.874;-1.092;2023-03-13T05:41:49;100858.66;;;11.08;100.00
9784;BME280;4931;44.874;-1.092;2023-03-13T05:44:15;100858.38;;;11.15;100.00
9784;BME280;4931;44.874;-1.092;2023-03-13T05:46:41;100846.88;;;10.98;100.00
9784;BME280;4931;44.874;-1.092;2023-03-13T05:49:06;100843.34;;;10.87;100.00
9784;BME280;4931;44.874;-1.092;2023-03-13T05:51:32;100852.16;;;10.89;100.00
9784;BME280;4931;44.874;-1.092;2023-03-13T05:53:57;100847.75;;;10.93;100.00
9784;BME280;4931;44.874;-1.092;2023-03-13T05:56:23;100852.69;;;10.91;100.00
9784;BME280;4931;44.874;-1.092;2023-03-13T05:58:48;100855.44;;;10.86;100.00
9784;BME280;4931;44.874;-1.092;2023-03-13T06:01:14;100859.81;;;10.92;100.00
9784;BME280;4931;44.874;-1.092;2023-03-13T06:03:39;100860.84;;;11.06;100.00
9784;BME280;4931;44.874;-1.092;2023-03-13T06:06:05;100836.78;;;10.83;100.00
9784;BME280;4931;44.874;-1.092;2023-03-13T06:08:31;100842.00;;;10.84;100.00
9784;BME280;4931;44.874;-1.092;2023-03-13T06:11:01;100831.31;;;10.83;100.00
9784;BME280;4931;44.874;-1.092;2023-03-13T06:13:27;100826.91;;;10.82;100.00
9784;BME280;4931;44.874;-1.092;2023-03-13T06:15:54;100838.13;;;10.95;100.00
9784;BME280;4931;44.874;-1.092;2023-03-13T06:18:21;100830.13;;;10.99;100.00
9784;BME280;4931;44.874;-1.092;2023-03-13T06:20:47;100823.56;;;10.95;100.00
9784;BME280;4931;44.874;-1.092;2023-03-13T06:23:13;100823.31;;;10.96;100.00
9784;BME280;4931;44.874;-1.092;2023-03-13T06:25:38;100810.91;;;10.99;100.00
9784;BME280;4931;44.874;-1.092;2023-03-13T06:28:04;100808.22;;;10.94;100.00
9784;BME280;4931;44.874;-1.092;2023-03-13T06:30:29;100802.47;;;10.90;100.00
9784;BME280;4931;44.874;-1.092;2023-03-13T06:32:55;100802.19;;;10.87;100.00
9784;BME280;4931;44.874;-1.092;2023-03-13T06:35:22;100794.22;;;10.90;100.00
9784;BME280;4931;44.874;-1.092;2023-03-13T06:37:47;100796.69;;;10.92;100.00
9784;BME280;4931;44.874;-1.092;2023-03-13T06:40:12;100777.53;;;10.82;100.00
9784;BME280;4931;44.874;-1.092;2023-03-13T06:42:38;100793.41;;;10.85;100.00
9784;BME280;4931;44.874;-1.092;2023-03-13T06:45:04;100791.78;;;10.89;100.00
9784;BME280;4931;44.874;-1.092;2023-03-13T06:47:30;100788.19;;;10.88;100.00
9784;BME280;4931;44.874;-1.092;2023-03-13T06:49:57;100792.59;;;10.89;100.00
9784;BME280;4931;44.874;-1.092;2023-03-13T06:52:22;100775.03;;;10.90;100.00
9784;BME280;4931;44.874;-1.092;2023-03-13T06:54:48;100775.31;;;10.89;100.00
9784;BME280;4931;44.874;-1.092;2023-03-13T06:57:13;100772.00;;;10.92;100.00
9784;BME280;4931;44.874;-1.092;2023-03-13T06:59:39;100757.72;;;10.90;100.00
9784;BME280;4931;44.874;-1.092;2023-03-13T07:02:05;100758.28;;;10.87;100.00
9784;BME280;4931;44.874;-1.092;2023-03-13T07:04:30;100751.41;;;10.89;100.00
9784;BME280;4931;44.874;-1.092;2023-03-13T07:06:56;100743.97;;;10.95;100.00
9784;BME280;4931;44.874;-1.092;2023-03-13T07:09:21;100741.16;;;11.05;100.00
9784;BME280;4931;44.874;-1.092;2023-03-13T07:11:47;100745.56;;;11.06;100.00
9784;BME280;4931;44.874;-1.092;2023-03-13T07:14:13;100750.97;;;11.22;100.00
9784;BME280;4931;44.874;-1.092;2023-03-13T07:16:38;100748.53;;;11.15;100.00
9784;BME280;4931;44.874;-1.092;2023-03-13T07:19:03;100750.09;;;11.26;100.00
9784;BME280;4931;44.874;-1.092;2023-03-13T07:21:29;100753.31;;;11.39;100.00
9784;BME280;4931;44.874;-1.092;2023-03-13T07:23:54;100749.44;;;11.40;100.00
9784;BME280;4931;44.874;-1.092;2023-03-13T07:26:20;100748.41;;;11.70;100.00
9784;BME280;4931;44.874;-1.092;2023-03-13T07:28:46;100740.22;;;11.65;100.00
9784;BME280;4931;44.874;-1.092;2023-03-13T07:31:14;100745.16;;;11.63;100.00
9784;BME280;4931;44.874;-1.092;2023-03-13T07:33:40;100749.22;;;11.71;100.00
9784;BME280;4931;44.874;-1.092;2023-03-13T07:36:06;100751.13;;;11.75;100.00
9784;BME280;4931;44.874;-1.092;2023-03-13T07:38:32;100751.34;;;12.14;100.00
9784;BME280;4931;44.874;-1.092;2023-03-13T07:40:58;100751.56;;;12.66;100.00
9784;BME280;4931;44.874;-1.092;2023-03-13T07:43:24;100741.59;;;12.94;100.00
9784;BME280;4931;44.874;-1.092;2023-03-13T07:45:51;100730.03;;;13.30;100.00
9784;BME280;4931;44.874;-1.092;2023-03-13T07:48:17;100710.63;;;13.40;100.00
9784;BME280;4931;44.874;-1.092;2023-03-13T07:50:43;100687.91;;;13.49;100.00
9784;BME280;4931;44.874;-1.092;2023-03-13T07:53:08;100673.22;;;14.00;100.00
9784;BME280;4931;44.874;-1.092;2023-03-13T07:55:34;100651.16;;;14.28;100.00
9784;BME280;4931;44.874;-1.092;2023-03-13T07:57:59;100615.50;;;14.32;100.00
9784;BME280;4931;44.874;-1.092;2023-03-13T08:00:25;100588.53;;;14.79;100.00
9784;BME280;4931;44.874;-1.092;2023-03-13T08:02:50;100550.81;;;14.97;100.00
9784;BME280;4931;44.874;-1.092;2023-03-13T08:05:16;100515.53;;;14.71;100.00
9784;BME280;4931;44.874;-1.092;2023-03-13T08:07:43;100496.13;;;15.17;100.00
9784;BME280;4931;44.874;-1.092;2023-03-13T08:10:09;100480.66;;;15.07;100.00
9784;BME280;4931;44.874;-1.092;2023-03-13T08:12:34;100473.91;;;14.90;100.00
9784;BME280;4931;44.874;-1.092;2023-03-13T08:15:00;100470.13;;;14.77;100.00
9784;BME280;4931;44.874;-1.092;2023-03-13T08:17:28;100454.53;;;14.82;100.00
9784;BME280;4931;44.874;-1.092;2023-03-13T08:19:54;100440.28;;;15.20;100.00
9784;BME280;4931;44.874;-1.092;2023-03-13T08:22:19;100422.19;;;15.14;100.00
9784;BME280;4931;44.874;-1.092;2023-03-13T08:24:45;100424.56;;;15.38;100.00
9784;BME280;4931;44.874;-1.092;2023-03-13T08:27:10;100412.97;;;15.27;100.00
9784;BME280;4931;44.874;-1.092;2023-03-13T08:29:36;100401.44;;;15.34;100.00
9784;BME280;4931;44.874;-1.092;2023-03-13T08:32:01;100389.09;;;15.31;100.00
9784;BME280;4931;44.874;-1.092;2023-03-13T08:34:26;100395.31;;;15.46;100.00
9784;BME280;4931;44.874;-1.092;2023-03-13T08:36:52;100403.59;;;15.37;100.00
9784;BME280;4931;44.874;-1.092;2023-03-13T08:39:19;100397.63;;;15.61;100.00
9784;BME280;4931;44.874;-1.092;2023-03-13T08:41:45;100381.81;;;15.44;100.00
9784;BME280;4931;44.874;-1.092;2023-03-13T08:44:13;100392.09;;;15.61;100.00
9784;BME280;4931;44.874;-1.092;2023-03-13T08:46:38;100409.00;;;15.77;100.00
9784;BME280;4931;44.874;-1.092;2023-03-13T08:49:06;100404.19;;;16.00;100.00
9784;BME280;4931;44.874;-1.092;2023-03-13T08:51:32;100390.69;;;15.99;100.00
9784;BME280;4931;44.874;-1.092;2023-03-13T08:53:59;100371.59;;;15.80;100.00
9784;BME280;4931;44.874;-1.092;2023-03-13T08:56:26;100370.34;;;16.03;100.00
9784;BME280;4931;44.874;-1.092;2023-03-13T08:58:54;100366.09;;;16.15;100.00
9784;BME280;4931;44.874;-1.092;2023-03-13T09:01:22;100350.50;;;16.01;100.00
9784;BME280;4931;44.874;-1.092;2023-03-13T09:03:48;100349.63;;;16.36;100.00
9784;BME280;4931;44.874;-1.092;2023-03-13T09:06:14;100354.81;;;16.46;100.00
9784;BME280;4931;44.874;-1.092;2023-03-13T09:08:40;100354.31;;;16.53;100.00
9784;BME280;4931;44.874;-1.092;2023-03-13T09:11:14;100343.38;;;16.65;100.00
9784;BME280;4931;44.874;-1.092;2023-03-13T09:13:43;100322.66;;;16.71;100.00
9784;BME280;4931;44.874;-1.092;2023-03-13T09:16:11;100322.03;;;16.66;100.00
9784;BME280;4931;44.874;-1.092;2023-03-13T09:18:38;100330.31;;;16.74;100.00
9784;BME280;4931;44.874;-1.092;2023-03-13T09:21:09;100310.06;;;16.83;100.00
9784;BME280;4931;44.874;-1.092;2023-03-13T09:23:34;100306.03;;;16.71;100.00
9784;BME280;4931;44.874;-1.092;2023-03-13T09:26:00;100291.34;;;16.80;100.00
9784;BME280;4931;44.874;-1.092;2023-03-13T09:28:26;100274.78;;;16.62;100.00
9784;BME280;4931;44.874;-1.092;2023-03-13T09:30:53;100290.28;;;16.54;100.00
9784;BME280;4931;44.874;-1.092;2023-03-13T09:33:20;100286.19;;;16.69;100.00
9784;BME280;4931;44.874;-1.092;2023-03-13T09:35:48;100265.00;;;16.65;100.00
9784;BME280;4931;44.874;-1.092;2023-03-13T09:38:20;100264.44;;;16.50;100.00
9784;BME280;4931;44.874;-1.092;2023-03-13T09:40:50;100276.06;;;16.73;100.00
9784;BME280;4931;44.874;-1.092;2023-03-13T09:45:48;100290.75;;;17.04;100.00
9784;BME280;4931;44.874;-1.092;2023-03-13T09:48:33;100285.97;;;17.34;100.00
9784;BME280;4931;44.874;-1.092;2023-03-13T09:51:16;100249.91;;;17.76;100.00
9784;BME280;4931;44.874;-1.092;2023-03-13T09:54:07;100250.41;;;17.91;100.00
9784;BME280;4931;44.874;-1.092;2023-03-13T09:56:44;100219.13;;;18.03;100.00
9784;BME280;4931;44.874;-1.092;2023-03-13T10:02:48;100216.06;;;18.54;100.00
9784;BME280;4931;44.874;-1.092;2023-03-13T10:05:22;100195.03;;;18.65;100.00
9784;BME280;4931;44.874;-1.092;2023-03-13T10:07:49;100204.97;;;18.91;100.00
9784;BME280;4931;44.874;-1.092;2023-03-13T10:10:23;100193.84;;;19.03;100.00
9784;BME280;4931;44.874;-1.092;2023-03-13T10:12:56;100184.94;;;18.98;100.00
9784;BME280;4931;44.874;-1.092;2023-03-13T10:15:51;100177.19;;;18.79;100.00
9784;BME280;4931;44.874;-1.092;2023-03-13T10:18:20;100189.69;;;18.85;100.00
9784;BME280;4931;44.874;-1.092;2023-03-13T10:20:49;100201.81;;;19.05;100.00
9784;BME280;4931;44.874;-1.092;2023-03-13T10:26:23;100179.59;;;18.80;100.00
9784;BME280;4931;44.874;-1.092;2023-03-13T10:28:52;100168.09;;;19.19;100.00
9784;BME280;4931;44.874;-1.092;2023-03-13T10:31:30;100169.97;;;19.02;100.00
9784;BME280;4931;44.874;-1.092;2023-03-13T10:34:11;100166.75;;;19.00;100.00
9784;BME280;4931;44.874;-1.092;2023-03-13T10:36:42;100172.50;;;19.07;100.00
9784;BME280;4931;44.874;-1.092;2023-03-13T10:39:17;100183.84;;;19.15;100.00
9784;BME280;4931;44.874;-1.092;2023-03-13T10:41:43;100177.38;;;19.39;100.00
9784;BME280;4931;44.874;-1.092;2023-03-13T10:46:43;100178.84;;;19.49;100.00
9784;BME280;4931;44.874;-1.092;2023-03-13T10:49:14;100177.72;;;19.66;100.00
9784;BME280;4931;44.874;-1.092;2023-03-13T10:51:46;100177.78;;;19.82;100.00
9784;BME280;4931;44.874;-1.092;2023-03-13T10:54:35;100174.72;;;19.87;100.00
9784;BME280;4931;44.874;-1.092;2023-03-13T10:57:36;100170.38;;;19.73;100.00
9784;BME280;4931;44.874;-1.092;2023-03-13T11:00:22;100169.47;;;19.69;100.00
9784;BME280;4931;44.874;-1.092;2023-03-13T11:02:49;100158.59;;;19.93;100.00
9784;BME280;4931;44.874;-1.092;2023-03-13T11:05:31;100151.75;;;19.90;100.00
9784;BME280;4931;44.874;-1.092;2023-03-13T11:07:57;100148.50;;;19.88;100.00
9784;BME280;4931;44.874;-1.092;2023-03-13T11:10:28;100149.97;;;19.82;100.00
9784;BME280;4931;44.874;-1.092;2023-03-13T11:12:56;100155.53;;;20.14;100.00
9784;BME280;4931;44.874;-1.092;2023-03-13T11:15:40;100159.94;;;20.15;100.00
9784;BME280;4931;44.874;-1.092;2023-03-13T11:18:15;100160.50;;;20.56;100.00
9784;BME280;4931;44.874;-1.092;2023-03-13T11:20:44;100167.16;;;20.67;100.00
9784;BME280;4931;44.874;-1.092;2023-03-13T11:26:24;100176.47;;;20.91;100.00
9784;BME280;4931;44.874;-1.092;2023-03-13T11:28:59;100168.78;;;21.23;100.00
9784;BME280;4931;44.874;-1.092;2023-03-13T11:31:33;100166.28;;;21.38;100.00
9784;BME280;4931;44.874;-1.092;2023-03-13T11:34:26;100180.31;;;21.61;100.00
9784;BME280;4931;44.874;-1.092;2023-03-13T11:37:11;100171.50;;;21.59;100.00
9784;BME280;4931;44.874;-1.092;2023-03-13T11:45:15;100261.97;;;21.78;100.00
9784;BME280;4931;44.874;-1.092;2023-03-13T11:48:17;100399.66;;;22.01;100.00
9784;BME280;4931;44.874;-1.092;2023-03-13T11:53:32;100153.09;;;22.01;100.00
9784;BME280;4931;44.874;-1.092;2023-03-13T12:01:17;100183.66;;;21.70;100.00
9784;BME280;4931;44.874;-1.092;2023-03-13T12:06:33;100210.09;;;21.77;100.00
9784;BME280;4931;44.874;-1.092;2023-03-13T12:17:42;100316.47;;;21.91;100.00
9784;BME280;4931;44.874;-1.092;2023-03-13T12:25:42;100349.94;;;22.30;100.00
9784;BME280;4931;44.874;-1.092;2023-03-13T12:31:51;100378.47;;;22.20;100.00
9784;BME280;4931;44.874;-1.092;2023-03-13T12:34:22;100387.13;;;22.34;100.00
9784;BME280;4931;44.874;-1.092;2023-03-13T12:36:55;100356.81;;;22.56;100.00
9784;BME280;4931;44.874;-1.092;2023-03-13T12:39:27;100337.88;;;22.69;100.00
9784;BME280;4931;44.874;-1.092;2023-03-13T12:44:34;100345.09;;;22.27;100.00
9784;BME280;4931;44.874;-1.092;2023-03-13T12:47:31;100323.09;;;22.02;100.00
9784;BME280;4931;44.874;-1.092;2023-03-13T12:55:19;100348.34;;;21.90;100.00
9784;BME280;4931;44.874;-1.092;2023-03-13T13:00:21;100372.00;;;22.16;100.00
9784;BME280;4931;44.874;-1.092;2023-03-13T13:03:01;100372.59;;;22.05;100.00
9784;BME280;4931;44.874;-1.092;2023-03-13T13:05:31;100382.03;;;22.17;100.00
9784;BME280;4931;44.874;-1.092;2023-03-13T13:07:57;100384.19;;;22.27;100.00
9784;BME280;4931;44.874;-1.092;2023-03-13T13:10:24;100380.41;;;21.96;100.00
9784;BME280;4931;44.874;-1.092;2023-03-13T13:15:41;100387.50;;;21.22;100.00
9784;BME280;4931;44.874;-1.092;2023-03-13T13:18:27;100379.84;;;21.03;100.00
9784;BME280;4931;44.874;-1.092;2023-03-13T13:23:32;100393.53;;;21.09;100.00
9784;BME280;4931;44.874;-1.092;2023-03-13T13:28:49;100396.09;;;20.69;100.00
9784;BME280;4931;44.874;-1.092;2023-03-13T13:36:59;100403.13;;;20.35;100.00
9784;BME280;4931;44.874;-1.092;2023-03-13T13:41:57;100380.59;;;20.56;100.00
9784;BME280;4931;44.874;-1.092;2023-03-13T13:44:27;100383.47;;;20.44;100.00
9784;BME280;4931;44.874;-1.092;2023-03-13T13:46:55;100393.00;;;20.59;100.00
9784;BME280;4931;44.874;-1.092;2023-03-13T13:49:24;100385.16;;;20.77;100.00
9784;BME280;4931;44.874;-1.092;2023-03-13T13:57:20;100387.41;;;20.87;100.00
9784;BME280;4931;44.874;-1.092;2023-03-13T13:59:50;100373.38;;;20.99;100.00
9784;BME280;4931;44.874;-1.092;2023-03-13T14:05:02;100371.56;;;21.23;100.00
9784;BME280;4931;44.874;-1.092;2023-03-13T14:10:45;100363.66;;;20.93;100.00
9784;BME280;4931;44.874;-1.092;2023-03-13T14:13:16;100364.41;;;20.90;100.00
9784;BME280;4931;44.874;-1.092;2023-03-13T14:15:46;100354.22;;;20.98;100.00
9784;BME280;4931;44.874;-1.092;2023-03-13T14:18:23;100355.50;;;21.00;100.00
9784;BME280;4931;44.874;-1.092;2023-03-13T14:20:55;100349.44;;;20.98;100.00
9784;BME280;4931;44.874;-1.092;2023-03-13T14:23:47;100349.44;;;20.66;100.00
9784;BME280;4931;44.874;-1.092;2023-03-13T14:29:01;100343.72;;;20.02;100.00
9784;BME280;4931;44.874;-1.092;2023-03-13T14:34:03;100345.56;;;19.70;100.00
9784;BME280;4931;44.874;-1.092;2023-03-13T14:36:29;100351.97;;;19.58;100.00
9784;BME280;4931;44.874;-1.092;2023-03-13T14:39:16;100350.16;;;19.37;100.00